createdAt,value
2023-03-19T00:00:33.902Z,100.00
2023-03-19T00:03:01.938Z,100.00
2023-03-19T00:05:29.927Z,100.00
2023-03-19T00:07:59.074Z,100.00
2023-03-19T00:10:27.000Z,100.00
2023-03-19T00:12:54.935Z,100.00
2023-03-19T00:15:22.896Z,100.00
2023-03-19T00:17:52.529Z,100.00
2023-03-19T00:20:22.211Z,100.00
2023-03-19T00:22:50.149Z,100.00
2023-03-19T00:25:18.253Z,100.00
2023-03-19T00:27:46.281Z,100.00
2023-03-19T00:30:15.080Z,100.00
2023-03-19T00:32:43.036Z,100.00
2023-03-19T00:35:12.598Z,100.00
2023-03-19T00:37:41.194Z,100.00
2023-03-19T00:40:11.974Z,100.00
2023-03-19T00:42:39.974Z,100.00
2023-03-19T00:45:09.101Z,100.00
2023-03-19T00:47:38.350Z,100.00
2023-03-19T00:50:07.144Z,100.00
2023-03-19T00:52:36.411Z,100.00
2023-03-19T00:55:04.416Z,100.00
2023-03-19T00:57:32.378Z,100.00
2023-03-19T01:00:00.270Z,100.00
2023-03-19T01:02:28.286Z,100.00
2023-03-19T01:04:56.247Z,100.00
2023-03-19T01:07:24.223Z,100.00
2023-03-19T01:09:53.585Z,100.00
2023-03-19T01:12:21.547Z,100.00
2023-03-19T01:14:49.477Z,100.00
2023-03-19T01:17:17.478Z,100.00
2023-03-19T01:19:45.436Z,100.00
2023-03-19T01:22:14.254Z,100.00
2023-03-19T01:24:42.127Z,100.00
2023-03-19T01:27:11.920Z,100.00
2023-03-19T01:29:39.936Z,100.00
2023-03-19T01:32:08.049Z,100.00
2023-03-19T01:34:36.714Z,100.00
2023-03-19T01:37:04.613Z,100.00
2023-03-19T01:39:32.826Z,100.00
2023-03-19T01:42:03.166Z,100.00
2023-03-19T01:44:33.897Z,100.00
2023-03-19T01:47:04.765Z,100.00
2023-03-19T01:49:32.893Z,100.00
2023-03-19T01:52:03.923Z,100.00
2023-03-19T01:54:33.526Z,100.00
2023-03-19T01:57:06.973Z,100.00
2023-03-19T01:59:38.879Z,100.00
2023-03-19T02:02:12.158Z,100.00
2023-03-19T02:04:42.885Z,100.00
2023-03-19T02:07:12.645Z,100.00
2023-03-19T02:09:42.066Z,100.00
2023-03-19T02:12:10.899Z,100.00
2023-03-19T02:14:40.315Z,100.00
2023-03-19T02:17:08.833Z,100.00
2023-03-19T02:19:50.542Z,100.00
2023-03-19T02:22:22.707Z,100.00
2023-03-19T02:24:55.027Z,100.00
2023-03-19T02:27:24.623Z,100.00
2023-03-19T02:29:52.562Z,100.00
2023-03-19T02:32:20.562Z,100.00
2023-03-19T02:34:49.468Z,100.00
2023-03-19T02:37:22.108Z,100.00
2023-03-19T02:39:55.889Z,100.00
2023-03-19T02:42:28.094Z,100.00
2023-03-19T02:44:56.481Z,100.00
2023-03-19T02:47:25.183Z,100.00
2023-03-19T02:49:53.059Z,100.00
2023-03-19T02:52:21.532Z,100.00
2023-03-19T02:54:49.577Z,100.00
2023-03-19T02:57:17.724Z,100.00
2023-03-19T02:59:47.822Z,100.00
2023-03-19T03:02:15.835Z,100.00
2023-03-19T03:04:43.811Z,100.00
2023-03-19T03:07:12.264Z,100.00
2023-03-19T03:09:40.244Z,100.00
2023-03-19T03:12:08.933Z,100.00
2023-03-19T03:14:36.898Z,100.00
2023-03-19T03:17:06.157Z,100.00
2023-03-19T03:19:34.216Z,100.00
2023-03-19T03:22:02.138Z,100.00
2023-03-19T03:24:30.334Z,100.00
2023-03-19T03:26:58.277Z,100.00
2023-03-19T03:29:26.770Z,100.00
2023-03-19T03:31:54.798Z,100.00
2023-03-19T03:34:24.194Z,100.00
2023-03-19T03:36:52.197Z,100.00
2023-03-19T03:39:20.180Z,100.00
2023-03-19T03:41:48.053Z,100.00
2023-03-19T03:44:15.942Z,100.00
2023-03-19T03:46:44.612Z,100.00
2023-03-19T03:49:12.509Z,100.00
2023-03-19T03:51:42.160Z,100.00
2023-03-19T03:54:10.053Z,100.00
2023-03-19T03:56:37.957Z,100.00
2023-03-19T03:59:05.994Z,100.00
2023-03-19T04:01:34.061Z,100.00
2023-03-19T04:04:02.037Z,100.00
2023-03-19T04:06:30.345Z,100.00
2023-03-19T04:08:59.679Z,100.00
2023-03-19T04:11:27.763Z,100.00
2023-03-19T04:13:56.667Z,100.00
2023-03-19T04:16:24.926Z,100.00
2023-03-19T04:18:52.870Z,100.00
2023-03-19T04:21:21.384Z,100.00
2023-03-19T04:23:49.407Z,100.00
2023-03-19T04:26:18.951Z,100.00
2023-03-19T04:28:47.197Z,100.00
2023-03-19T04:31:15.489Z,100.00
2023-03-19T04:33:43.465Z,100.00
2023-03-19T04:36:11.998Z,100.00
2023-03-19T04:38:39.894Z,100.00
2023-03-19T04:41:07.764Z,100.00
2023-03-19T04:43:37.088Z,100.00
2023-03-19T04:46:05.851Z,100.00
2023-03-19T04:48:33.832Z,100.00
2023-03-19T04:51:03.075Z,100.00
2023-03-19T04:53:31.401Z,100.00
2023-03-19T04:55:59.332Z,100.00
2023-03-19T04:58:27.650Z,100.00
2023-03-19T05:00:56.924Z,100.00
2023-03-19T05:03:26.258Z,100.00
2023-03-19T05:05:55.271Z,100.00
2023-03-19T05:08:23.194Z,100.00
2023-03-19T05:10:51.077Z,100.00
2023-03-19T05:13:21.531Z,100.00
2023-03-19T05:15:49.879Z,100.00
2023-03-19T05:18:19.395Z,100.00
2023-03-19T05:20:47.369Z,100.00
2023-03-19T05:23:15.370Z,100.00
2023-03-19T05:25:43.608Z,100.00
2023-03-19T05:28:11.601Z,100.00
2023-03-19T05:30:39.485Z,100.00
2023-03-19T05:33:07.423Z,100.00
2023-03-19T05:35:38.070Z,100.00
2023-03-19T05:38:06.430Z,100.00
2023-03-19T05:40:35.080Z,100.00
2023-03-19T05:43:03.174Z,100.00
2023-03-19T05:45:31.218Z,100.00
2023-03-19T05:47:59.170Z,100.00
2023-03-19T05:50:27.176Z,100.00
2023-03-19T05:52:56.738Z,100.00
2023-03-19T05:55:24.666Z,100.00
2023-03-19T05:57:53.371Z,100.00
2023-03-19T06:00:22.177Z,100.00
2023-03-19T06:02:52.226Z,100.00
2023-03-19T06:05:20.138Z,100.00
2023-03-19T06:07:51.049Z,100.00
2023-03-19T06:10:21.361Z,100.00
2023-03-19T06:12:49.250Z,100.00
2023-03-19T06:15:17.685Z,100.00
2023-03-19T06:17:45.901Z,100.00
2023-03-19T06:20:14.554Z,100.00
2023-03-19T06:22:44.049Z,100.00
2023-03-19T06:25:12.181Z,100.00
2023-03-19T06:27:41.445Z,100.00
2023-03-19T06:30:10.687Z,100.00
2023-03-19T06:32:38.763Z,100.00
2023-03-19T06:35:08.662Z,100.00
2023-03-19T06:37:36.544Z,100.00
2023-03-19T06:40:05.062Z,100.00
2023-03-19T06:42:33.061Z,100.00
2023-03-19T06:45:02.564Z,100.00
2023-03-19T06:47:31.130Z,100.00
2023-03-19T06:49:59.815Z,100.00
2023-03-19T06:52:27.815Z,100.00
2023-03-19T06:54:55.935Z,100.00
2023-03-19T06:57:23.806Z,100.00
2023-03-19T06:59:51.838Z,100.00
2023-03-19T07:02:21.091Z,100.00
2023-03-19T07:04:48.991Z,100.00
2023-03-19T07:07:16.876Z,100.00
2023-03-19T07:10:01.223Z,100.00
2023-03-19T07:12:31.312Z,100.00
2023-03-19T07:14:59.219Z,100.00
2023-03-19T07:17:28.515Z,100.00
2023-03-19T07:19:56.389Z,100.00
2023-03-19T07:22:24.276Z,100.00
2023-03-19T07:24:52.596Z,100.00
2023-03-19T07:27:21.018Z,100.00
2023-03-19T07:29:48.937Z,100.00
2023-03-19T07:32:17.369Z,100.00
2023-03-19T07:34:46.664Z,100.00
2023-03-19T07:37:14.527Z,100.00
2023-03-19T07:39:42.452Z,100.00
2023-03-19T07:42:10.490Z,100.00
2023-03-19T07:44:38.406Z,100.00
2023-03-19T07:47:08.199Z,100.00
2023-03-19T07:49:41.245Z,100.00
2023-03-19T07:52:11.043Z,100.00
2023-03-19T07:54:39.088Z,100.00
2023-03-19T07:57:07.097Z,100.00
2023-03-19T07:59:35.627Z,100.00
2023-03-19T08:02:03.577Z,100.00
2023-03-19T08:04:31.739Z,100.00
2023-03-19T08:06:59.714Z,100.00
2023-03-19T08:09:29.098Z,100.00
2023-03-19T08:11:57.548Z,100.00
2023-03-19T08:14:25.466Z,100.00
2023-03-19T08:16:53.544Z,100.00
2023-03-19T08:19:22.218Z,100.00
2023-03-19T08:21:50.208Z,100.00
2023-03-19T08:24:18.817Z,100.00
2023-03-19T08:26:48.743Z,100.00
2023-03-19T08:29:22.506Z,100.00
2023-03-19T08:31:50.379Z,100.00
2023-03-19T08:34:22.166Z,100.00
2023-03-19T08:36:50.619Z,100.00
2023-03-19T08:39:19.322Z,100.00
2023-03-19T08:41:48.676Z,99.70
2023-03-19T08:44:16.968Z,99.13
2023-03-19T08:46:45.062Z,99.47
2023-03-19T08:49:13.019Z,99.47
2023-03-19T08:51:41.169Z,96.00
2023-03-19T08:54:09.579Z,96.94
2023-03-19T08:56:37.785Z,93.83
2023-03-19T08:59:07.980Z,92.43
2023-03-19T09:01:37.043Z,89.81
2023-03-19T09:04:05.094Z,89.97
2023-03-19T09:06:33.100Z,89.94
2023-03-19T09:09:01.486Z,89.32
2023-03-19T09:11:30.145Z,89.52
2023-03-19T09:13:58.085Z,84.61
2023-03-19T09:16:27.455Z,81.73
2023-03-19T09:18:57.921Z,79.27
2023-03-19T09:21:27.298Z,77.94
2023-03-19T09:23:55.713Z,78.96
2023-03-19T09:26:23.568Z,74.16
2023-03-19T09:28:51.946Z,72.57
2023-03-19T09:31:20.054Z,69.97
2023-03-19T09:33:49.419Z,69.39
2023-03-19T09:36:17.440Z,68.79
2023-03-19T09:38:45.408Z,68.05
2023-03-19T09:41:24.260Z,68.49
2023-03-19T09:44:03.662Z,68.19
2023-03-19T09:46:39.690Z,67.50
2023-03-19T09:49:19.436Z,65.38
2023-03-19T09:51:51.647Z,66.33
2023-03-19T09:54:33.478Z,63.77
2023-03-19T09:57:02.479Z,62.93
2023-03-19T09:59:31.156Z,62.91
2023-03-19T10:02:10.725Z,61.70
2023-03-19T10:04:59.656Z,63.09
2023-03-19T10:07:38.554Z,62.22
2023-03-19T10:10:25.998Z,63.41
2023-03-19T10:13:01.681Z,62.22
2023-03-19T10:15:31.196Z,58.95
2023-03-19T10:18:04.594Z,56.93
2023-03-19T10:20:41.263Z,55.78
2023-03-19T10:23:30.398Z,53.83
2023-03-19T10:26:00.594Z,52.24
2023-03-19T10:28:30.129Z,50.51
2023-03-19T10:31:11.784Z,50.46
2023-03-19T10:33:46.124Z,50.05
2023-03-19T10:36:16.447Z,48.98
2023-03-19T10:38:45.459Z,49.31
2023-03-19T10:41:25.872Z,46.88
2023-03-19T10:43:56.203Z,46.82
2023-03-19T10:46:24.149Z,46.86
2023-03-19T10:48:52.151Z,46.39
2023-03-19T10:51:25.863Z,47.39
2023-03-19T10:53:55.591Z,47.09
2023-03-19T10:56:25.609Z,45.65
2023-03-19T10:59:01.918Z,45.96
2023-03-19T11:01:34.020Z,45.90
2023-03-19T11:04:03.966Z,44.73
2023-03-19T11:06:36.580Z,45.00
2023-03-19T11:09:16.593Z,45.02
2023-03-19T11:11:48.515Z,44.80
2023-03-19T11:14:20.856Z,43.13
2023-03-19T11:16:56.911Z,43.24
2023-03-19T11:19:26.700Z,43.75
2023-03-19T11:22:09.349Z,43.87
2023-03-19T11:24:39.380Z,43.93
2023-03-19T11:27:07.681Z,42.86
2023-03-19T11:29:41.806Z,42.26
2023-03-19T11:32:23.481Z,41.98
2023-03-19T11:34:55.290Z,42.13
2023-03-19T11:37:34.283Z,42.16
2023-03-19T11:40:11.051Z,42.20
2023-03-19T11:43:01.400Z,41.51
2023-03-19T11:45:40.777Z,41.25
2023-03-19T11:48:27.305Z,41.20
2023-03-19T11:50:59.888Z,42.34
2023-03-19T11:53:33.163Z,41.59
2023-03-19T11:56:13.640Z,42.23
2023-03-19T11:58:56.098Z,42.48
2023-03-19T12:01:39.360Z,42.12
2023-03-19T12:04:34.056Z,40.85
2023-03-19T12:07:11.683Z,41.78
2023-03-19T12:09:50.846Z,41.44
2023-03-19T12:12:26.953Z,40.95
2023-03-19T12:15:12.611Z,40.77
2023-03-19T12:17:52.948Z,39.81
2023-03-19T12:20:38.280Z,39.56
2023-03-19T12:23:18.377Z,40.47
2023-03-19T12:26:00.334Z,40.84
2023-03-19T12:28:31.734Z,40.33
2023-03-19T12:31:27.786Z,40.29
2023-03-19T12:34:10.160Z,41.02
2023-03-19T12:36:44.805Z,39.65
2023-03-19T12:39:16.737Z,39.93
2023-03-19T12:41:48.566Z,40.17
2023-03-19T12:44:22.940Z,39.86
2023-03-19T12:46:59.269Z,40.27
2023-03-19T12:49:31.662Z,39.54
2023-03-19T12:52:04.939Z,39.75
2023-03-19T12:54:37.174Z,39.53
2023-03-19T12:57:13.271Z,38.82
2023-03-19T12:59:47.675Z,39.46
2023-03-19T13:02:25.996Z,38.80
2023-03-19T13:04:57.557Z,39.00
2023-03-19T13:07:34.256Z,39.34
2023-03-19T13:10:08.142Z,39.00
2023-03-19T13:12:39.303Z,38.02
2023-03-19T13:15:14.233Z,38.93
2023-03-19T13:17:54.547Z,38.53
2023-03-19T13:20:33.052Z,37.73
2023-03-19T13:23:05.852Z,37.72
2023-03-19T13:25:38.279Z,38.08
2023-03-19T13:28:12.041Z,38.44
2023-03-19T13:30:42.382Z,38.45
2023-03-19T13:33:19.521Z,38.11
2023-03-19T13:35:51.515Z,38.71
2023-03-19T13:38:22.018Z,38.70
2023-03-19T13:40:54.491Z,38.51
2023-03-19T13:46:32.400Z,38.50
2023-03-19T13:49:10.953Z,38.53
2023-03-19T13:51:39.434Z,38.62
2023-03-19T13:54:16.391Z,38.52
2023-03-19T13:57:06.951Z,38.20
2023-03-19T13:59:36.914Z,38.02
2023-03-19T14:02:59.842Z,39.06
2023-03-19T14:05:35.700Z,39.17
2023-03-19T14:08:18.465Z,38.46
2023-03-19T14:10:51.162Z,37.69
2023-03-19T14:13:27.410Z,38.14
2023-03-19T14:16:04.503Z,38.43
2023-03-19T14:18:34.926Z,38.77
2023-03-19T14:21:08.915Z,38.42
2023-03-19T14:23:46.332Z,37.98
2023-03-19T14:26:18.614Z,37.76
2023-03-19T14:29:00.128Z,38.20
2023-03-19T14:31:38.132Z,38.41
2023-03-19T14:34:20.729Z,38.02
2023-03-19T14:36:57.217Z,37.65
2023-03-19T14:39:31.254Z,37.92
2023-03-19T14:42:04.260Z,38.03
2023-03-19T14:45:07.737Z,38.33
2023-03-19T14:48:17.748Z,37.55
2023-03-19T14:51:23.815Z,38.21
2023-03-19T14:53:55.540Z,37.97
2023-03-19T14:56:28.281Z,38.08
2023-03-19T14:59:02.931Z,39.31
2023-03-19T15:01:32.928Z,39.26
2023-03-19T15:04:04.160Z,39.12
2023-03-19T15:06:35.132Z,38.89
2023-03-19T15:09:08.814Z,38.64
2023-03-19T15:12:00.667Z,38.81
2023-03-19T15:14:52.445Z,38.89
2023-03-19T15:17:25.362Z,38.86
2023-03-19T15:19:55.425Z,39.10
2023-03-19T15:22:27.891Z,38.50
2023-03-19T15:25:07.097Z,39.01
2023-03-19T15:27:35.074Z,39.24
2023-03-19T15:30:14.429Z,39.64
2023-03-19T15:33:02.996Z,39.63
2023-03-19T15:35:36.399Z,39.00
2023-03-19T15:38:10.342Z,38.95
2023-03-19T15:40:42.185Z,39.85
2023-03-19T15:43:12.762Z,39.72
2023-03-19T15:45:43.819Z,40.15
2023-03-19T15:48:20.154Z,40.01
2023-03-19T15:50:51.826Z,39.59
2023-03-19T15:53:22.669Z,39.77
2023-03-19T15:55:53.885Z,39.47
2023-03-19T15:58:24.866Z,40.12
2023-03-19T16:00:54.090Z,40.66
2023-03-19T16:03:26.650Z,41.02
2023-03-19T16:06:02.635Z,40.87
2023-03-19T16:08:31.829Z,40.94
2023-03-19T16:11:17.358Z,41.21
2023-03-19T16:13:57.038Z,41.12
2023-03-19T16:16:26.270Z,41.53
2023-03-19T16:18:55.686Z,41.41
2023-03-19T16:21:29.610Z,42.33
2023-03-19T16:24:00.693Z,42.54
2023-03-19T16:26:37.122Z,43.06
2023-03-19T16:29:17.857Z,44.31
2023-03-19T16:31:51.782Z,44.48
2023-03-19T16:34:26.786Z,46.33
2023-03-19T16:36:54.733Z,46.78
2023-03-19T16:39:27.497Z,47.69
2023-03-19T16:42:17.500Z,47.89
2023-03-19T16:44:48.282Z,48.26
2023-03-19T16:47:16.981Z,49.13
2023-03-19T16:49:44.933Z,49.49
2023-03-19T16:52:18.442Z,50.15
2023-03-19T16:54:46.863Z,51.52
2023-03-19T16:57:18.468Z,52.65
2023-03-19T16:59:47.761Z,52.31
2023-03-19T17:02:19.904Z,53.56
2023-03-19T17:04:48.264Z,54.67
2023-03-19T17:07:16.373Z,54.69
2023-03-19T17:09:44.319Z,56.12
2023-03-19T17:12:17.647Z,56.45
2023-03-19T17:14:45.695Z,57.01
2023-03-19T17:17:19.324Z,57.33
2023-03-19T17:19:48.079Z,56.18
2023-03-19T17:22:18.720Z,58.21
2023-03-19T17:24:46.748Z,58.43
2023-03-19T17:27:15.404Z,58.90
2023-03-19T17:29:47.413Z,58.45
2023-03-19T17:32:19.628Z,58.49
2023-03-19T17:34:48.203Z,58.43
2023-03-19T17:37:19.345Z,59.59
2023-03-19T17:39:47.662Z,61.01
2023-03-19T17:42:21.029Z,61.68
2023-03-19T17:44:50.433Z,62.32
2023-03-19T17:47:19.692Z,64.32
2023-03-19T17:49:48.733Z,64.34
2023-03-19T17:52:18.733Z,64.76
2023-03-19T17:54:46.859Z,65.27
2023-03-19T17:57:16.011Z,65.18
2023-03-19T17:59:44.046Z,66.00
2023-03-19T18:02:25.934Z,67.41
2023-03-19T18:04:53.953Z,66.99
2023-03-19T18:07:21.914Z,65.99
2023-03-19T18:09:49.855Z,67.50
2023-03-19T18:12:17.727Z,67.98
2023-03-19T18:14:45.982Z,67.88
2023-03-19T18:17:16.905Z,68.10
2023-03-19T18:19:49.215Z,67.62
2023-03-19T18:22:19.500Z,68.41
2023-03-19T18:24:47.624Z,69.94
2023-03-19T18:27:15.860Z,70.53
2023-03-19T18:29:43.801Z,75.00
2023-03-19T18:32:17.241Z,70.27
2023-03-19T18:34:46.513Z,69.52
2023-03-19T18:37:19.211Z,69.36
2023-03-19T18:39:47.230Z,69.15
2023-03-19T18:42:15.756Z,68.66
2023-03-19T18:44:43.936Z,68.83
2023-03-19T18:47:16.093Z,68.61
2023-03-19T18:49:46.066Z,68.71
2023-03-19T18:52:19.794Z,68.30
2023-03-19T18:54:47.725Z,68.74
2023-03-19T18:57:20.079Z,68.33
2023-03-19T18:59:48.191Z,68.37
2023-03-19T19:02:32.608Z,68.50
2023-03-19T19:05:00.712Z,70.96
2023-03-19T19:07:30.045Z,70.19
2023-03-19T19:09:58.012Z,69.11
2023-03-19T19:12:27.782Z,68.49
2023-03-19T19:14:58.764Z,69.54
2023-03-19T19:17:29.392Z,67.85
2023-03-19T19:19:57.591Z,68.50
2023-03-19T19:22:29.697Z,69.49
2023-03-19T19:24:59.029Z,67.83
2023-03-19T19:27:30.278Z,67.60
2023-03-19T19:29:58.251Z,70.45
2023-03-19T19:32:28.685Z,70.25
2023-03-19T19:34:59.119Z,71.09
2023-03-19T19:37:27.068Z,71.91
2023-03-19T19:39:55.460Z,73.50
2023-03-19T19:42:24.842Z,73.46
2023-03-19T19:44:55.873Z,74.46
2023-03-19T19:47:23.964Z,74.48
2023-03-19T19:49:52.018Z,79.51
2023-03-19T19:52:22.900Z,79.57
2023-03-19T19:54:51.976Z,78.91
2023-03-19T19:57:22.818Z,79.10
2023-03-19T19:59:53.450Z,78.00
2023-03-19T20:02:23.511Z,79.32
2023-03-19T20:04:51.546Z,80.35
2023-03-19T20:07:19.506Z,81.74
2023-03-19T20:09:48.054Z,80.67
2023-03-19T20:12:24.080Z,82.66
2023-03-19T20:14:53.627Z,80.99
2023-03-19T20:17:25.101Z,81.88
2023-03-19T20:19:53.066Z,84.37
2023-03-19T20:22:21.148Z,83.63
2023-03-19T20:24:51.244Z,83.12
2023-03-19T20:27:21.662Z,82.77
2023-03-19T20:29:50.720Z,81.37
2023-03-19T20:32:29.283Z,84.81
2023-03-19T20:34:57.205Z,88.54
2023-03-19T20:37:25.345Z,90.01
2023-03-19T20:39:53.308Z,90.89
2023-03-19T20:42:21.374Z,91.40
2023-03-19T20:44:49.697Z,93.54
2023-03-19T20:47:19.429Z,95.54
2023-03-19T20:49:50.459Z,96.83
2023-03-19T20:52:18.423Z,98.35
2023-03-19T20:54:46.385Z,99.71
2023-03-19T20:57:16.752Z,100.00
2023-03-19T20:59:46.973Z,100.00
2023-03-19T21:02:19.504Z,99.34
2023-03-19T21:04:49.772Z,99.05
2023-03-19T21:07:29.339Z,99.47
2023-03-19T21:09:57.983Z,100.00
2023-03-19T21:12:29.462Z,100.00
2023-03-19T21:14:57.925Z,100.00
2023-03-19T21:17:27.350Z,100.00
2023-03-19T21:19:56.935Z,100.00
2023-03-19T21:22:28.499Z,100.00
2023-03-19T21:25:03.356Z,100.00
2023-03-19T21:27:32.818Z,100.00
2023-03-19T21:30:01.026Z,100.00
2023-03-19T21:32:29.060Z,100.00
2023-03-19T21:34:58.537Z,100.00
2023-03-19T21:37:26.448Z,100.00
2023-03-19T21:39:54.381Z,100.00
2023-03-19T21:42:23.578Z,100.00
2023-03-19T21:44:59.455Z,100.00
2023-03-19T21:47:27.443Z,100.00
2023-03-19T21:49:55.441Z,100.00
2023-03-19T21:52:24.922Z,100.00
2023-03-19T21:54:52.858Z,100.00
2023-03-19T21:57:20.850Z,100.00
2023-03-19T21:59:48.855Z,100.00
2023-03-19T22:02:40.386Z,100.00
2023-03-19T22:05:19.613Z,100.00
2023-03-19T22:07:49.014Z,100.00
2023-03-19T22:10:17.265Z,100.00
2023-03-19T22:12:46.405Z,100.00
2023-03-19T22:15:21.331Z,100.00
2023-03-19T22:17:50.031Z,100.00
2023-03-19T22:20:19.777Z,100.00
2023-03-19T22:22:49.337Z,100.00
2023-03-19T22:25:18.596Z,100.00
2023-03-19T22:27:48.819Z,100.00
2023-03-19T22:30:35.792Z,100.00
2023-03-19T22:33:11.566Z,100.00
2023-03-19T22:35:39.665Z,100.00
2023-03-19T22:38:08.983Z,100.00
2023-03-19T22:40:38.441Z,100.00
2023-03-19T22:43:16.883Z,100.00
2023-03-19T22:45:45.111Z,100.00
2023-03-19T22:48:18.061Z,100.00
2023-03-19T22:50:45.947Z,100.00
2023-03-19T22:53:28.214Z,100.00
2023-03-19T22:55:56.464Z,100.00
2023-03-19T22:58:24.821Z,100.00
2023-03-19T23:00:53.762Z,100.00
2023-03-19T23:03:24.664Z,100.00
2023-03-19T23:05:54.477Z,100.00
2023-03-19T23:08:22.848Z,100.00
2023-03-19T23:10:53.463Z,100.00
2023-03-19T23:13:22.181Z,100.00
2023-03-19T23:15:53.837Z,100.00
2023-03-19T23:18:28.560Z,100.00
2023-03-19T23:20:58.142Z,100.00
2023-03-19T23:23:27.216Z,100.00
2023-03-19T23:25:57.380Z,100.00
2023-03-19T23:28:29.927Z,100.00
2023-03-19T23:30:58.720Z,100.00
2023-03-19T23:33:27.105Z,100.00
2023-03-19T23:35:55.214Z,100.00
2023-03-19T23:38:23.707Z,100.00
2023-03-19T23:40:52.840Z,100.00
2023-03-19T23:43:27.178Z,100.00
2023-03-19T23:45:56.456Z,100.00
2023-03-19T23:48:26.946Z,100.00
2023-03-19T23:50:54.845Z,100.00
2023-03-19T23:53:24.878Z,100.00
2023-03-19T23:55:56.553Z,100.00
2023-03-19T23:58:31.218Z,100.00
